sensor_id;sensor_type;location;lat;lon;timestamp;pressure;altitude;pressure_sealevel;temperature;humidity
66547;BME280;53400;50.364;14.874;2023-05-23T00:00:12;98253.56;;;15.71;63.68
66547;BME280;53400;50.364;14.874;2023-05-23T00:02:58;98245.66;;;15.98;63.29
66547;BME280;53400;50.364;14.874;2023-05-23T00:05:25;98245.50;;;15.90;63.39
66547;BME280;53400;50.364;14.874;2023-05-23T00:07:51;98245.44;;;15.95;62.79
66547;BME280;53400;50.364;14.874;2023-05-23T00:10:22;98247.03;;;15.96;63.04
66547;BME280;53400;50.364;14.874;2023-05-23T00:12:48;98240.63;;;15.92;62.79
66547;BME280;53400;50.364;14.874;2023-05-23T00:15:14;98238.97;;;15.67;63.91
66547;BME280;53400;50.364;14.874;2023-05-23T00:17:40;98229.00;;;15.67;63.85
66547;BME280;53400;50.364;14.874;2023-05-23T00:20:06;98236.84;;;15.69;63.37
66547;BME280;53400;50.364;14.874;2023-05-23T00:22:36;98239.47;;;15.74;63.38
66547;BME280;53400;50.364;14.874;2023-05-23T00:25:05;98241.00;;;15.56;64.23
66547;BME280;53400;50.364;14.874;2023-05-23T00:27:32;98233.47;;;15.53;64.40
66547;BME280;53400;50.364;14.874;2023-05-23T00:29:58;98244.50;;;15.56;64.49
66547;BME280;53400;50.364;14.874;2023-05-23T00:32:24;98248.16;;;15.71;63.71
66547;BME280;53400;50.364;14.874;2023-05-23T00:34:50;98244.94;;;15.69;63.77
66547;BME280;53400;50.364;14.874;2023-05-23T00:37:19;98248.59;;;15.78;64.08
66547;BME280;53400;50.364;14.874;2023-05-23T00:39:47;98249.28;;;15.65;64.54
66547;BME280;53400;50.364;14.874;2023-05-23T00:42:12;98251.94;;;15.41;65.15
66547;BME280;53400;50.364;14.874;2023-05-23T00:44:40;98246.41;;;15.27;65.69
66547;BME280;53400;50.364;14.874;2023-05-23T00:47:06;98234.22;;;15.34;65.59
66547;BME280;53400;50.364;14.874;2023-05-23T00:49:33;98234.28;;;15.24;66.02
66547;BME280;53400;50.364;14.874;2023-05-23T00:52:00;98245.84;;;15.30;65.62
66547;BME280;53400;50.364;14.874;2023-05-23T00:54:28;98237.97;;;15.33;65.70
66547;BME280;53400;50.364;14.874;2023-05-23T00:56:56;98245.03;;;15.29;65.64
66547;BME280;53400;50.364;14.874;2023-05-23T00:59:23;98236.19;;;15.24;66.21
66547;BME280;53400;50.364;14.874;2023-05-23T01:01:51;98235.81;;;15.06;66.41
66547;BME280;53400;50.364;14.874;2023-05-23T01:04:19;98228.88;;;15.24;65.81
66547;BME280;53400;50.364;14.874;2023-05-23T01:06:45;98227.34;;;15.18;66.20
66547;BME280;53400;50.364;14.874;2023-05-23T01:09:11;98231.44;;;15.16;66.26
66547;BME280;53400;50.364;14.874;2023-05-23T01:11:41;98233.13;;;15.06;66.21
66547;BME280;53400;50.364;14.874;2023-05-23T01:14:11;98224.28;;;15.01;66.80
66547;BME280;53400;50.364;14.874;2023-05-23T01:16:59;98233.81;;;15.17;66.28
66547;BME280;53400;50.364;14.874;2023-05-23T01:19:41;98224.97;;;15.11;65.85
66547;BME280;53400;50.364;14.874;2023-05-23T01:22:17;98219.94;;;15.00;66.52
66547;BME280;53400;50.364;14.874;2023-05-23T01:24:53;98223.59;;;15.14;66.43
66547;BME280;53400;50.364;14.874;2023-05-23T01:27:23;98215.81;;;15.12;66.25
66547;BME280;53400;50.364;14.874;2023-05-23T01:29:57;98217.06;;;14.91;67.23
66547;BME280;53400;50.364;14.874;2023-05-23T01:32:26;98219.00;;;14.85;67.55
66547;BME280;53400;50.364;14.874;2023-05-23T01:34:53;98216.88;;;14.82;66.85
66547;BME280;53400;50.364;14.874;2023-05-23T01:37:20;98211.31;;;14.68;67.46
66547;BME280;53400;50.364;14.874;2023-05-23T01:39:46;98214.59;;;14.60;67.75
66547;BME280;53400;50.364;14.874;2023-05-23T01:42:12;98208.09;;;14.66;66.95
66547;BME280;53400;50.364;14.874;2023-05-23T01:44:39;98203.31;;;14.58;67.69
66547;BME280;53400;50.364;14.874;2023-05-23T01:47:08;98201.19;;;14.50;67.88
66547;BME280;53400;50.364;14.874;2023-05-23T01:49:36;98204.44;;;14.52;67.85
66547;BME280;53400;50.364;14.874;2023-05-23T01:52:04;98200.94;;;14.46;68.38
66547;BME280;53400;50.364;14.874;2023-05-23T01:54:31;98203.16;;;14.39;68.46
66547;BME280;53400;50.364;14.874;2023-05-23T01:57:00;98202.25;;;14.54;68.00
66547;BME280;53400;50.364;14.874;2023-05-23T01:59:26;98196.16;;;14.38;68.03
66547;BME280;53400;50.364;14.874;2023-05-23T02:01:52;98205.09;;;14.34;68.64
66547;BME280;53400;50.364;14.874;2023-05-23T02:04:20;98201.41;;;14.14;69.27
66547;BME280;53400;50.364;14.874;2023-05-23T02:06:46;98204.09;;;14.19;68.78
66547;BME280;53400;50.364;14.874;2023-05-23T02:09:12;98207.56;;;14.20;68.88
66547;BME280;53400;50.364;14.874;2023-05-23T02:11:38;98205.13;;;14.23;68.68
66547;BME280;53400;50.364;14.874;2023-05-23T02:14:04;98214.38;;;14.12;68.85
66547;BME280;53400;50.364;14.874;2023-05-23T02:16:30;98202.69;;;14.27;68.44
66547;BME280;53400;50.364;14.874;2023-05-23T02:18:58;98202.34;;;14.39;68.14
66547;BME280;53400;50.364;14.874;2023-05-23T02:21:25;98196.31;;;14.13;69.07
66547;BME280;53400;50.364;14.874;2023-05-23T02:23:51;98196.34;;;14.08;69.46
66547;BME280;53400;50.364;14.874;2023-05-23T02:26:17;98201.22;;;14.00;69.38
66547;BME280;53400;50.364;14.874;2023-05-23T02:28:43;98203.59;;;14.12;69.15
66547;BME280;53400;50.364;14.874;2023-05-23T02:31:09;98203.28;;;14.19;69.12
66547;BME280;53400;50.364;14.874;2023-05-23T02:33:35;98209.13;;;14.31;68.13
66547;BME280;53400;50.364;14.874;2023-05-23T02:36:01;98209.94;;;14.76;67.02
66547;BME280;53400;50.364;14.874;2023-05-23T02:38:29;98220.53;;;15.26;65.03
66547;BME280;53400;50.364;14.874;2023-05-23T02:40:55;98233.81;;;15.46;64.20
66547;BME280;53400;50.364;14.874;2023-05-23T02:43:22;98219.09;;;15.33;64.59
66547;BME280;53400;50.364;14.874;2023-05-23T02:45:48;98224.88;;;14.93;67.20
66547;BME280;53400;50.364;14.874;2023-05-23T02:48:15;98223.66;;;14.75;68.52
66547;BME280;53400;50.364;14.874;2023-05-23T02:50:40;98215.22;;;14.47;68.65
66547;BME280;53400;50.364;14.874;2023-05-23T02:53:06;98208.63;;;14.68;67.67
66547;BME280;53400;50.364;14.874;2023-05-23T02:55:34;98216.28;;;15.20;66.06
66547;BME280;53400;50.364;14.874;2023-05-23T02:58:00;98227.06;;;15.20;65.74
66547;BME280;53400;50.364;14.874;2023-05-23T03:00:26;98217.16;;;14.81;67.03
66547;BME280;53400;50.364;14.874;2023-05-23T03:02:52;98216.38;;;14.36;68.85
66547;BME280;53400;50.364;14.874;2023-05-23T03:05:18;98227.84;;;14.91;67.02
66547;BME280;53400;50.364;14.874;2023-05-23T03:07:44;98239.56;;;14.76;68.27
66547;BME280;53400;50.364;14.874;2023-05-23T03:10:10;98245.25;;;15.33;65.59
66547;BME280;53400;50.364;14.874;2023-05-23T03:12:37;98253.13;;;15.29;65.85
66547;BME280;53400;50.364;14.874;2023-05-23T03:15:04;98265.06;;;14.44;69.33
66547;BME280;53400;50.364;14.874;2023-05-23T03:17:31;98255.66;;;14.52;69.74
66547;BME280;53400;50.364;14.874;2023-05-23T03:19:56;98237.97;;;14.26;71.08
66547;BME280;53400;50.364;14.874;2023-05-23T03:22:22;98244.91;;;14.81;69.24
66547;BME280;53400;50.364;14.874;2023-05-23T03:24:48;98239.41;;;14.62;70.44
66547;BME280;53400;50.364;14.874;2023-05-23T03:27:14;98231.09;;;14.88;69.10
66547;BME280;53400;50.364;14.874;2023-05-23T03:29:42;98232.22;;;15.16;68.26
66547;BME280;53400;50.364;14.874;2023-05-23T03:32:08;98230.41;;;14.77;70.03
66547;BME280;53400;50.364;14.874;2023-05-23T03:34:34;98216.69;;;15.03;68.76
66547;BME280;53400;50.364;14.874;2023-05-23T03:37:01;98217.38;;;15.19;68.09
66547;BME280;53400;50.364;14.874;2023-05-23T03:39:27;98228.69;;;14.86;69.82
66547;BME280;53400;50.364;14.874;2023-05-23T03:41:53;98216.78;;;14.93;69.38
66547;BME280;53400;50.364;14.874;2023-05-23T03:44:18;98226.28;;;14.85;69.54
66547;BME280;53400;50.364;14.874;2023-05-23T03:46:46;98235.56;;;14.74;70.29
66547;BME280;53400;50.364;14.874;2023-05-23T03:49:12;98225.84;;;14.73;70.67
66547;BME280;53400;50.364;14.874;2023-05-23T03:51:38;98223.53;;;14.90;70.66
66547;BME280;53400;50.364;14.874;2023-05-23T03:54:04;98230.47;;;15.01;69.48
66547;BME280;53400;50.364;14.874;2023-05-23T03:56:30;98227.28;;;14.94;69.56
66547;BME280;53400;50.364;14.874;2023-05-23T03:58:56;98216.56;;;14.44;72.19
66547;BME280;53400;50.364;14.874;2023-05-23T04:01:22;98214.94;;;14.09;74.56
66547;BME280;53400;50.364;14.874;2023-05-23T04:03:49;98223.09;;;14.33;72.83
66547;BME280;53400;50.364;14.874;2023-05-23T04:06:16;98218.91;;;14.17;73.23
66547;BME280;53400;50.364;14.874;2023-05-23T04:08:42;98204.47;;;13.97;75.89
66547;BME280;53400;50.364;14.874;2023-05-23T04:11:08;98211.78;;;13.87;76.35
66547;BME280;53400;50.364;14.874;2023-05-23T04:13:34;98201.50;;;13.99;75.64
66547;BME280;53400;50.364;14.874;2023-05-23T04:16:03;98207.88;;;14.18;74.57
66547;BME280;53400;50.364;14.874;2023-05-23T04:18:30;98196.41;;;13.92;76.89
66547;BME280;53400;50.364;14.874;2023-05-23T04:20:59;98196.81;;;14.15;74.73
66547;BME280;53400;50.364;14.874;2023-05-23T04:23:25;98199.03;;;14.08;75.51
66547;BME280;53400;50.364;14.874;2023-05-23T04:25:51;98198.13;;;14.22;75.07
66547;BME280;53400;50.364;14.874;2023-05-23T04:28:17;98199.63;;;14.44;74.00
66547;BME280;53400;50.364;14.874;2023-05-23T04:30:43;98189.53;;;14.65;71.17
66547;BME280;53400;50.364;14.874;2023-05-23T04:33:09;98184.84;;;14.76;72.35
66547;BME280;53400;50.364;14.874;2023-05-23T04:35:38;98172.03;;;14.62;72.34
66547;BME280;53400;50.364;14.874;2023-05-23T04:38:06;98177.28;;;14.78;72.88
66547;BME280;53400;50.364;14.874;2023-05-23T04:40:32;98180.91;;;15.21;70.50
66547;BME280;53400;50.364;14.874;2023-05-23T04:42:58;98181.81;;;15.11;69.55
66547;BME280;53400;50.364;14.874;2023-05-23T04:45:24;98172.25;;;15.24;69.59
66547;BME280;53400;50.364;14.874;2023-05-23T04:47:51;98176.84;;;15.24;70.33
66547;BME280;53400;50.364;14.874;2023-05-23T04:50:19;98176.88;;;15.67;68.80
66547;BME280;53400;50.364;14.874;2023-05-23T04:52:47;98172.81;;;15.45;69.47
66547;BME280;53400;50.364;14.874;2023-05-23T04:55:15;98171.81;;;15.41;69.84
66547;BME280;53400;50.364;14.874;2023-05-23T04:57:40;98171.06;;;16.02;67.99
66547;BME280;53400;50.364;14.874;2023-05-23T05:00:07;98170.09;;;15.93;68.24
66547;BME280;53400;50.364;14.874;2023-05-23T05:02:34;98177.50;;;16.25;68.85
66547;BME280;53400;50.364;14.874;2023-05-23T05:05:01;98169.34;;;16.63;67.22
66547;BME280;53400;50.364;14.874;2023-05-23T05:07:27;98171.03;;;15.83;68.57
66547;BME280;53400;50.364;14.874;2023-05-23T05:09:54;98158.13;;;15.99;69.43
66547;BME280;53400;50.364;14.874;2023-05-23T05:12:21;98152.19;;;16.54;67.73
66547;BME280;53400;50.364;14.874;2023-05-23T05:14:47;98133.78;;;16.56;67.78
66547;BME280;53400;50.364;14.874;2023-05-23T05:17:13;98128.50;;;16.32;70.84
66547;BME280;53400;50.364;14.874;2023-05-23T05:19:39;98117.97;;;16.12;71.41
66547;BME280;53400;50.364;14.874;2023-05-23T05:22:05;98110.03;;;16.01;72.44
66547;BME280;53400;50.364;14.874;2023-05-23T05:24:32;98110.19;;;16.10;70.86
66547;BME280;53400;50.364;14.874;2023-05-23T05:26:58;98125.22;;;15.97;69.64
66547;BME280;53400;50.364;14.874;2023-05-23T05:29:26;98141.69;;;16.52;67.77
66547;BME280;53400;50.364;14.874;2023-05-23T05:31:51;98158.25;;;16.65;66.78
66547;BME280;53400;50.364;14.874;2023-05-23T05:34:18;98156.22;;;15.81;72.49
66547;BME280;53400;50.364;14.874;2023-05-23T05:36:43;98141.75;;;15.48;78.87
66547;BME280;53400;50.364;14.874;2023-05-23T05:39:13;98153.75;;;15.36;79.00
66547;BME280;53400;50.364;14.874;2023-05-23T05:41:42;98151.06;;;15.36;78.86
66547;BME280;53400;50.364;14.874;2023-05-23T05:44:09;98163.94;;;15.69;77.35
66547;BME280;53400;50.364;14.874;2023-05-23T05:46:36;98175.88;;;16.24;78.59
66547;BME280;53400;50.364;14.874;2023-05-23T05:49:02;98177.41;;;16.31;77.00
66547;BME280;53400;50.364;14.874;2023-05-23T05:51:29;98177.63;;;15.96;83.84
66547;BME280;53400;50.364;14.874;2023-05-23T05:53:56;98177.09;;;15.94;78.76
66547;BME280;53400;50.364;14.874;2023-05-23T05:56:22;98193.25;;;16.18;79.19
66547;BME280;53400;50.364;14.874;2023-05-23T05:58:48;98189.00;;;16.12;80.12
66547;BME280;53400;50.364;14.874;2023-05-23T06:01:14;98184.28;;;16.23;85.88
66547;BME280;53400;50.364;14.874;2023-05-23T06:03:42;98175.28;;;16.27;79.85
66547;BME280;53400;50.364;14.874;2023-05-23T06:06:09;98184.34;;;16.18;86.71
66547;BME280;53400;50.364;14.874;2023-05-23T06:08:35;98197.22;;;16.07;90.39
66547;BME280;53400;50.364;14.874;2023-05-23T06:11:01;98186.94;;;15.85;94.22
66547;BME280;53400;50.364;14.874;2023-05-23T06:13:27;98187.31;;;15.97;94.46
66547;BME280;53400;50.364;14.874;2023-05-23T06:15:53;98187.56;;;16.39;90.68
66547;BME280;53400;50.364;14.874;2023-05-23T06:18:19;98180.34;;;16.67;86.57
66547;BME280;53400;50.364;14.874;2023-05-23T06:20:46;98188.91;;;16.74;81.68
66547;BME280;53400;50.364;14.874;2023-05-23T06:23:12;98196.28;;;16.87;81.90
66547;BME280;53400;50.364;14.874;2023-05-23T06:25:38;98201.41;;;17.35;83.64
66547;BME280;53400;50.364;14.874;2023-05-23T06:28:07;98206.38;;;17.28;84.08
66547;BME280;53400;50.364;14.874;2023-05-23T06:30:33;98210.22;;;16.94;89.44
66547;BME280;53400;50.364;14.874;2023-05-23T06:33:01;98215.63;;;16.94;87.03
66547;BME280;53400;50.364;14.874;2023-05-23T06:35:27;98214.88;;;17.08;83.67
66547;BME280;53400;50.364;14.874;2023-05-23T06:37:54;98223.81;;;17.22;79.69
66547;BME280;53400;50.364;14.874;2023-05-23T06:40:20;98231.09;;;17.54;79.60
66547;BME280;53400;50.364;14.874;2023-05-23T06:42:46;98228.88;;;16.96;81.93
66547;BME280;53400;50.364;14.874;2023-05-23T06:45:12;98237.44;;;17.17;82.49
66547;BME280;53400;50.364;14.874;2023-05-23T06:47:38;98241.94;;;17.08;81.07
66547;BME280;53400;50.364;14.874;2023-05-23T06:50:08;98239.94;;;16.81;84.52
66547;BME280;53400;50.364;14.874;2023-05-23T06:52:35;98249.31;;;17.02;83.33
66547;BME280;53400;50.364;14.874;2023-05-23T06:55:02;98257.91;;;16.90;84.16
66547;BME280;53400;50.364;14.874;2023-05-23T06:57:29;98253.44;;;17.00;83.99
66547;BME280;53400;50.364;14.874;2023-05-23T06:59:55;98256.19;;;17.27;79.80
66547;BME280;53400;50.364;14.874;2023-05-23T07:02:21;98245.59;;;17.31;77.23
66547;BME280;53400;50.364;14.874;2023-05-23T07:04:50;98256.44;;;17.58;77.93
66547;BME280;53400;50.364;14.874;2023-05-23T07:07:16;98251.66;;;17.69;76.28
66547;BME280;53400;50.364;14.874;2023-05-23T07:09:42;98251.38;;;17.24;78.57
66547;BME280;53400;50.364;14.874;2023-05-23T07:12:10;98252.56;;;17.18;78.67
66547;BME280;53400;50.364;14.874;2023-05-23T07:14:36;98255.00;;;17.33;81.30
66547;BME280;53400;50.364;14.874;2023-05-23T07:17:05;98243.00;;;16.93;81.92
66547;BME280;53400;50.364;14.874;2023-05-23T07:19:32;98241.72;;;17.04;80.46
66547;BME280;53400;50.364;14.874;2023-05-23T07:21:58;98233.63;;;17.04;81.02
66547;BME280;53400;50.364;14.874;2023-05-23T07:24:24;98219.56;;;16.50;83.44
66547;BME280;53400;50.364;14.874;2023-05-23T07:26:50;98211.66;;;16.35;87.90
66547;BME280;53400;50.364;14.874;2023-05-23T07:29:17;98214.25;;;15.83;90.82
66547;BME280;53400;50.364;14.874;2023-05-23T07:31:44;98217.03;;;15.97;88.22
66547;BME280;53400;50.364;14.874;2023-05-23T07:34:09;98229.03;;;16.48;86.22
66547;BME280;53400;50.364;14.874;2023-05-23T07:36:35;98230.34;;;16.88;87.02
66547;BME280;53400;50.364;14.874;2023-05-23T07:39:02;98226.09;;;17.01;85.55
66547;BME280;53400;50.364;14.874;2023-05-23T07:41:28;98223.47;;;17.10;82.41
66547;BME280;53400;50.364;14.874;2023-05-23T07:43:54;98231.56;;;16.96;84.67
66547;BME280;53400;50.364;14.874;2023-05-23T07:46:22;98246.00;;;17.38;83.42
66547;BME280;53400;50.364;14.874;2023-05-23T07:48:48;98253.09;;;17.80;82.91
66547;BME280;53400;50.364;14.874;2023-05-23T07:51:14;98253.50;;;17.87;82.35
66547;BME280;53400;50.364;14.874;2023-05-23T07:53:40;98262.63;;;17.78;83.76
66547;BME280;53400;50.364;14.874;2023-05-23T07:56:06;98270.03;;;17.86;82.41
66547;BME280;53400;50.364;14.874;2023-05-23T07:58:32;98273.09;;;17.52;83.28
66547;BME280;53400;50.364;14.874;2023-05-23T08:00:58;98268.19;;;17.54;81.51
66547;BME280;53400;50.364;14.874;2023-05-23T08:03:25;98266.47;;;17.44;85.76
66547;BME280;53400;50.364;14.874;2023-05-23T08:05:52;98270.25;;;16.96;84.17
66547;BME280;53400;50.364;14.874;2023-05-23T08:08:18;98265.78;;;17.06;85.67
66547;BME280;53400;50.364;14.874;2023-05-23T08:10:44;98268.88;;;16.80;87.95
66547;BME280;53400;50.364;14.874;2023-05-23T08:13:14;98254.56;;;17.12;83.83
66547;BME280;53400;50.364;14.874;2023-05-23T08:15:41;98266.34;;;17.03;84.17
66547;BME280;53400;50.364;14.874;2023-05-23T08:18:07;98273.03;;;17.24;86.25
66547;BME280;53400;50.364;14.874;2023-05-23T08:20:37;98263.13;;;17.33;88.70
66547;BME280;53400;50.364;14.874;2023-05-23T08:23:03;98272.09;;;17.61;86.57
66547;BME280;53400;50.364;14.874;2023-05-23T08:25:30;98272.84;;;17.95;85.96
66547;BME280;53400;50.364;14.874;2023-05-23T08:27:57;98270.19;;;18.31;86.20
66547;BME280;53400;50.364;14.874;2023-05-23T08:30:24;98270.91;;;18.37;80.40
66547;BME280;53400;50.364;14.874;2023-05-23T08:32:54;98287.84;;;18.42;82.23
66547;BME280;53400;50.364;14.874;2023-05-23T08:35:23;98272.47;;;18.51;79.72
66547;BME280;53400;50.364;14.874;2023-05-23T08:37:52;98277.97;;;18.60;80.62
66547;BME280;53400;50.364;14.874;2023-05-23T08:40:21;98287.09;;;18.64;79.99
66547;BME280;53400;50.364;14.874;2023-05-23T08:42:47;98287.00;;;18.55;79.65
66547;BME280;53400;50.364;14.874;2023-05-23T08:45:14;98281.50;;;18.47;79.44
66547;BME280;53400;50.364;14.874;2023-05-23T08:47:42;98297.53;;;18.07;82.18
66547;BME280;53400;50.364;14.874;2023-05-23T08:50:14;98289.59;;;18.10;81.70
66547;BME280;53400;50.364;14.874;2023-05-23T08:52:43;98300.94;;;18.26;80.94
66547;BME280;53400;50.364;14.874;2023-05-23T08:55:16;98309.09;;;17.99;84.80
66547;BME280;53400;50.364;14.874;2023-05-23T08:57:42;98304.63;;;18.17;84.96
66547;BME280;53400;50.364;14.874;2023-05-23T09:00:11;98304.03;;;17.92;87.07
66547;BME280;53400;50.364;14.874;2023-05-23T09:02:42;98310.78;;;17.95;85.69
66547;BME280;53400;50.364;14.874;2023-05-23T09:05:09;98318.31;;;17.84;86.60
66547;BME280;53400;50.364;14.874;2023-05-23T09:07:35;98316.41;;;17.84;85.21
66547;BME280;53400;50.364;14.874;2023-05-23T09:10:02;98312.41;;;17.96;83.05
66547;BME280;53400;50.364;14.874;2023-05-23T09:12:31;98308.81;;;17.67;83.10
66547;BME280;53400;50.364;14.874;2023-05-23T09:14:58;98305.56;;;17.98;82.25
66547;BME280;53400;50.364;14.874;2023-05-23T09:17:24;98306.81;;;17.59;81.48
66547;BME280;53400;50.364;14.874;2023-05-23T09:19:53;98319.38;;;17.83;83.60
66547;BME280;53400;50.364;14.874;2023-05-23T09:22:23;98320.38;;;17.40;89.39
66547;BME280;53400;50.364;14.874;2023-05-23T09:24:50;98310.63;;;17.72;86.91
66547;BME280;53400;50.364;14.874;2023-05-23T09:27:17;98307.50;;;17.65;84.69
66547;BME280;53400;50.364;14.874;2023-05-23T09:29:45;98305.91;;;17.50;87.90
66547;BME280;53400;50.364;14.874;2023-05-23T09:32:16;98316.41;;;17.19;91.63
66547;BME280;53400;50.364;14.874;2023-05-23T09:34:57;98320.94;;;17.24;92.66
66547;BME280;53400;50.364;14.874;2023-05-23T09:37:28;98321.00;;;17.05;92.81
66547;BME280;53400;50.364;14.874;2023-05-23T09:39:54;98319.03;;;17.24;96.67
66547;BME280;53400;50.364;14.874;2023-05-23T09:42:21;98313.22;;;17.63;94.81
66547;BME280;53400;50.364;14.874;2023-05-23T09:44:52;98318.97;;;17.76;92.22
66547;BME280;53400;50.364;14.874;2023-05-23T09:47:18;98318.72;;;17.77;89.22
66547;BME280;53400;50.364;14.874;2023-05-23T09:49:45;98317.91;;;17.58;94.49
66547;BME280;53400;50.364;14.874;2023-05-23T09:52:11;98317.50;;;17.83;94.10
66547;BME280;53400;50.364;14.874;2023-05-23T09:54:38;98313.97;;;17.36;97.44
66547;BME280;53400;50.364;14.874;2023-05-23T09:57:08;98326.38;;;17.70;95.07
66547;BME280;53400;50.364;14.874;2023-05-23T09:59:38;98328.13;;;17.94;96.91
66547;BME280;53400;50.364;14.874;2023-05-23T10:02:11;98322.22;;;18.19;94.12
66547;BME280;53400;50.364;14.874;2023-05-23T10:04:38;98325.72;;;18.20;96.70
66547;BME280;53400;50.364;14.874;2023-05-23T10:07:12;98328.44;;;18.20;95.38
66547;BME280;53400;50.364;14.874;2023-05-23T10:09:41;98328.19;;;18.57;93.27
66547;BME280;53400;50.364;14.874;2023-05-23T10:15:17;98325.22;;;18.45;88.15
66547;BME280;53400;50.364;14.874;2023-05-23T10:17:59;98323.47;;;18.63;86.55
66547;BME280;53400;50.364;14.874;2023-05-23T10:20:29;98321.56;;;18.50;87.26
66547;BME280;53400;50.364;14.874;2023-05-23T10:22:58;98324.97;;;18.69;86.39
66547;BME280;53400;50.364;14.874;2023-05-23T10:25:25;98327.69;;;18.55;87.07
66547;BME280;53400;50.364;14.874;2023-05-23T10:27:54;98334.38;;;18.36;88.65
66547;BME280;53400;50.364;14.874;2023-05-23T10:30:24;98327.53;;;18.24;91.30
66547;BME280;53400;50.364;14.874;2023-05-23T10:32:51;98332.22;;;18.46;90.36
66547;BME280;53400;50.364;14.874;2023-05-23T10:35:23;98338.38;;;18.24;91.94
66547;BME280;53400;50.364;14.874;2023-05-23T10:37:55;98334.31;;;18.63;87.07
66547;BME280;53400;50.364;14.874;2023-05-23T10:40:32;98338.34;;;18.52;90.23
66547;BME280;53400;50.364;14.874;2023-05-23T10:43:03;98341.28;;;18.42;91.38
66547;BME280;53400;50.364;14.874;2023-05-23T10:45:39;98334.44;;;18.58;87.61
66547;BME280;53400;50.364;14.874;2023-05-23T10:48:19;98347.31;;;18.25;94.15
66547;BME280;53400;50.364;14.874;2023-05-23T10:51:00;98345.09;;;17.99;96.54
66547;BME280;53400;50.364;14.874;2023-05-23T10:53:31;98345.09;;;17.85;98.07
66547;BME280;53400;50.364;14.874;2023-05-23T10:55:59;98349.16;;;17.69;99.04
66547;BME280;53400;50.364;14.874;2023-05-23T10:58:28;98350.50;;;17.85;99.56
66547;BME280;53400;50.364;14.874;2023-05-23T11:00:59;98349.41;;;18.00;100.00
66547;BME280;53400;50.364;14.874;2023-05-23T11:03:36;98342.59;;;18.30;100.00
66547;BME280;53400;50.364;14.874;2023-05-23T11:06:04;98341.75;;;18.57;99.90
66547;BME280;53400;50.364;14.874;2023-05-23T11:08:38;98337.34;;;18.98;100.00
66547;BME280;53400;50.364;14.874;2023-05-23T11:11:06;98329.97;;;19.12;99.68
66547;BME280;53400;50.364;14.874;2023-05-23T11:13:58;98317.56;;;19.65;94.78
66547;BME280;53400;50.364;14.874;2023-05-23T11:16:27;98316.56;;;19.38;93.61
66547;BME280;53400;50.364;14.874;2023-05-23T11:19:21;98308.22;;;19.57;92.11
66547;BME280;53400;50.364;14.874;2023-05-23T11:21:52;98310.13;;;19.79;91.19
66547;BME280;53400;50.364;14.874;2023-05-23T11:24:18;98318.81;;;19.99;90.53
66547;BME280;53400;50.364;14.874;2023-05-23T11:26:51;98318.25;;;20.19;89.54
66547;BME280;53400;50.364;14.874;2023-05-23T11:29:19;98316.63;;;20.09;87.09
66547;BME280;53400;50.364;14.874;2023-05-23T11:31:45;98309.91;;;20.07;88.38
66547;BME280;53400;50.364;14.874;2023-05-23T11:34:11;98307.91;;;19.90;89.78
66547;BME280;53400;50.364;14.874;2023-05-23T11:36:38;98311.00;;;19.97;89.96
66547;BME280;53400;50.364;14.874;2023-05-23T11:39:06;98308.78;;;19.68;89.63
66547;BME280;53400;50.364;14.874;2023-05-23T11:41:33;98303.66;;;19.98;89.84
66547;BME280;53400;50.364;14.874;2023-05-23T11:44:00;98302.38;;;20.04;89.28
66547;BME280;53400;50.364;14.874;2023-05-23T11:46:26;98303.84;;;20.10;87.36
66547;BME280;53400;50.364;14.874;2023-05-23T11:48:52;98314.81;;;20.36;89.08
66547;BME280;53400;50.364;14.874;2023-05-23T11:51:18;98312.97;;;20.14;91.55
66547;BME280;53400;50.364;14.874;2023-05-23T11:53:46;98307.34;;;20.10;89.70
66547;BME280;53400;50.364;14.874;2023-05-23T11:56:14;98307.28;;;20.33;90.36
66547;BME280;53400;50.364;14.874;2023-05-23T11:58:40;98314.50;;;20.46;88.85
66547;BME280;53400;50.364;14.874;2023-05-23T12:01:08;98309.91;;;20.55;87.92
66547;BME280;53400;50.364;14.874;2023-05-23T12:03:44;98302.22;;;20.75;87.99
66547;BME280;53400;50.364;14.874;2023-05-23T12:06:13;98304.31;;;20.87;85.54
66547;BME280;53400;50.364;14.874;2023-05-23T12:08:39;98296.94;;;20.78;85.69
66547;BME280;53400;50.364;14.874;2023-05-23T12:11:06;98297.59;;;21.01;82.14
66547;BME280;53400;50.364;14.874;2023-05-23T12:13:33;98297.38;;;21.24;82.13
66547;BME280;53400;50.364;14.874;2023-05-23T12:16:01;98300.31;;;21.19;83.97
66547;BME280;53400;50.364;14.874;2023-05-23T12:18:28;98301.88;;;21.20;85.45
66547;BME280;53400;50.364;14.874;2023-05-23T12:20:54;98297.59;;;21.10;83.20
66547;BME280;53400;50.364;14.874;2023-05-23T12:23:24;98288.75;;;21.39;80.19
66547;BME280;53400;50.364;14.874;2023-05-23T12:25:50;98289.41;;;21.27;81.84
66547;BME280;53400;50.364;14.874;2023-05-23T12:28:17;98296.59;;;21.49;83.21
66547;BME280;53400;50.364;14.874;2023-05-23T12:30:45;98301.25;;;21.05;83.40
66547;BME280;53400;50.364;14.874;2023-05-23T12:33:10;98302.50;;;21.51;80.51
66547;BME280;53400;50.364;14.874;2023-05-23T12:35:37;98295.94;;;21.52;81.35
66547;BME280;53400;50.364;14.874;2023-05-23T12:38:04;98295.00;;;21.87;80.43
66547;BME280;53400;50.364;14.874;2023-05-23T12:40:31;98293.47;;;21.68;81.92
66547;BME280;53400;50.364;14.874;2023-05-23T12:42:57;98295.00;;;21.87;79.45
66547;BME280;53400;50.364;14.874;2023-05-23T12:45:30;98288.81;;;21.69;82.46
66547;BME280;53400;50.364;14.874;2023-05-23T12:47:57;98292.41;;;21.52;80.73
66547;BME280;53400;50.364;14.874;2023-05-23T12:50:27;98286.28;;;21.64;82.50
66547;BME280;53400;50.364;14.874;2023-05-23T12:52:53;98293.41;;;21.86;80.92
66547;BME280;53400;50.364;14.874;2023-05-23T12:55:20;98301.03;;;22.39;73.70